2TX6 weather

Everitt Airport
Idalou, Texas, United States

Public forecast

Using degrees Fahrenheit for public forecast. Weather courtesy of forecast.io.

Closest aviation weather report (METAR) to Everitt Airport

Closest report is Lubbock Preston Smith International Airport, 7.8 nm (14.5 km) W. Retrieved 2020/02/24 01:53 UTC (20 minutes ago):

KLBB 240153Z 27019KT 10SM FEW100 13/M03 A2981 RMK AO2 PK WND 27028/0125 SLP072 LGT BLDU ALQDS T01281033

Closest aviation forecast (TAF) to Everitt Airport

Forecast is more than 6 hours old.

Closest forecast is Lubbock Preston Smith International Airport, 7.8 nm (14.5 km) W. Retrieved 2020/02/23 18:40 UTC (8 hours ago):

TAF KLBB 231738Z 2318/2418 21015KT P6SM -SHRA BKN060 FM232100 23025G36KT 6SM BLDU SCT100 FM240100 26023KT P6SM SKC FM240800 31015KT P6SM SKC